Time;durP1;ratioP1;P1;durP2;ratioP2;P2;SDS_P1;SDS_P2;PMS_P1;PMS_P2;Temp;Humidity;BMP_temperature;BMP_pressure;BME280_temperature;BME280_humidity;BME280_pressure;Samples;Min_cycle;Max_cycle;Signal;HPM_P1;HPM_P2
2023/03/25 00:01:07;;;;;;;16.50;12.40;;;;;;;14.45;100.00;98768.20;107391;1274;22514;-68
2023/03/25 00:03:37;;;;;;;18.20;12.30;;;;;;;14.49;100.00;98760.64;107410;1274;26140;-68
2023/03/25 00:06:06;;;;;;;15.60;11.00;;;;;;;14.47;100.00;98759.77;107351;1274;22523;-68
2023/03/25 00:08:41;;;;;;;16.90;11.70;;;;;;;14.43;100.00;98755.61;107539;1274;25344;-68
2023/03/25 00:11:10;;;;;;;16.40;11.30;;;;;;;14.40;100.00;98757.63;107460;1260;22535;-67
2023/03/25 00:13:39;;;;;;;16.90;11.40;;;;;;;14.34;100.00;98752.70;107450;1274;24200;-68
2023/03/25 00:16:10;;;;;;;14.40;10.80;;;;;;;14.29;100.00;98752.39;107444;1274;25971;-68
2023/03/25 00:18:39;;;;;;;17.30;11.00;;;;;;;14.24;100.00;98749.98;107381;1274;25325;-67
2023/03/25 00:21:10;;;;;;;15.60;10.30;;;;;;;14.19;100.00;98748.65;107330;1274;22571;-67
2023/03/25 00:23:42;;;;;;;16.80;10.40;;;;;;;14.21;100.00;98747.39;107598;1274;25384;-67
2023/03/25 00:26:10;;;;;;;14.10;9.80;;;;;;;14.22;100.00;98745.88;107514;1274;23229;-67
2023/03/25 00:28:38;;;;;;;16.00;10.50;;;;;;;14.19;100.00;98745.59;107388;1274;22599;-67
2023/03/25 00:31:11;;;;;;;15.00;10.20;;;;;;;14.16;100.00;98741.53;107475;1274;25356;-67
2023/03/25 00:33:42;;;;;;;16.20;10.40;;;;;;;14.12;100.00;98737.69;107495;1274;22579;-67
2023/03/25 00:36:13;;;;;;;13.90;10.90;;;;;;;14.10;100.00;98736.77;107412;1274;25332;-67
2023/03/25 00:38:44;;;;;;;13.70;10.80;;;;;;;14.07;100.00;98731.87;107155;1274;25356;-66
2023/03/25 00:41:16;;;;;;;14.20;10.50;;;;;;;14.06;100.00;98728.72;107322;1274;22562;-67
2023/03/25 00:43:44;;;;;;;14.00;10.40;;;;;;;14.05;100.00;98729.59;107246;1274;25494;-67
2023/03/25 00:46:13;;;;;;;14.80;10.10;;;;;;;14.03;100.00;98727.61;107223;1274;25411;-68
2023/03/25 00:48:48;;;;;;;14.90;10.30;;;;;;;14.02;100.00;98728.74;108842;1274;22900;-68
2023/03/25 00:51:20;;;;;;;14.70;9.90;;;;;;;14.02;100.00;98721.75;110402;1274;22328;-68
2023/03/25 00:53:53;;;;;;;16.80;10.10;;;;;;;14.08;100.00;98724.24;110544;1274;22265;-68
2023/03/25 00:56:23;;;;;;;13.30;9.60;;;;;;;14.14;100.00;98724.94;110561;1274;22271;-68
2023/03/25 00:58:51;;;;;;;14.80;9.30;;;;;;;14.16;100.00;98724.55;110447;1274;22220;-68
2023/03/25 01:01:26;;;;;;;13.70;10.10;;;;;;;14.16;100.00;98729.31;110524;1274;22220;-68
2023/03/25 01:03:58;;;;;;;16.00;11.20;;;;;;;14.14;100.00;98728.45;110559;1274;23062;-65
2023/03/25 01:06:32;;;;;;;15.30;9.90;;;;;;;14.13;100.00;98727.61;110535;1274;22248;-66
2023/03/25 01:09:04;;;;;;;14.20;10.20;;;;;;;14.11;100.00;98731.63;109711;1275;24286;-65
2023/03/25 01:11:34;;;;;;;15.20;9.90;;;;;;;14.09;100.00;98730.81;107281;1276;22617;-67
2023/03/25 01:14:04;;;;;;;14.10;9.70;;;;;;;14.06;100.00;98728.85;107201;1275;22520;-67
2023/03/25 01:16:36;;;;;;;12.70;9.80;;;;;;;14.01;100.00;98728.83;107341;1276;27646;-67
2023/03/25 01:19:05;;;;;;;17.60;10.50;;;;;;;13.95;100.00;98726.86;107396;1274;22595;-67
2023/03/25 01:21:35;;;;;;;15.20;10.20;;;;;;;13.90;100.00;98727.48;107113;1276;22544;-67
2023/03/25 01:24:05;;;;;;;17.20;10.80;;;;;;;13.93;100.00;98723.92;107064;1276;25415;-67
2023/03/25 01:26:33;;;;;;;15.90;11.50;;;;;;;13.93;100.00;98720.89;107059;1274;22988;-67
2023/03/25 01:29:01;;;;;;;15.70;11.20;;;;;;;13.93;100.00;98719.58;107397;1274;26622;-67
2023/03/25 01:31:31;;;;;;;16.30;11.00;;;;;;;13.93;100.00;98722.47;107451;1274;22513;-68
2023/03/25 01:33:59;;;;;;;17.40;12.40;;;;;;;13.91;100.00;98721.61;107454;1274;25343;-68
2023/03/25 01:36:28;;;;;;;18.20;12.50;;;;;;;13.91;100.00;98719.38;107422;1274;25417;-67
2023/03/25 01:38:57;;;;;;;19.90;13.70;;;;;;;13.92;100.00;98717.33;107434;1274;25493;-67
2023/03/25 01:41:28;;;;;;;20.10;15.10;;;;;;;13.91;100.00;98712.20;107463;1274;25346;-67
2023/03/25 01:44:13;;;;;;;22.70;16.00;;;;;;;13.90;100.00;98712.06;107407;1274;25366;-67
2023/03/25 01:46:43;;;;;;;22.80;16.60;;;;;;;13.89;100.00;98704.34;107386;1275;25415;-67
2023/03/25 01:49:22;;;;;;;24.70;17.50;;;;;;;13.87;100.00;98704.66;107405;1276;25405;-68
2023/03/25 01:52:00;;;;;;;24.40;17.40;;;;;;;13.85;100.00;98709.89;107332;1276;22536;-68
2023/03/25 01:54:28;;;;;;;26.60;19.50;;;;;;;13.83;100.00;98711.34;107374;1276;24203;-67
2023/03/25 01:56:56;;;;;;;27.90;19.20;;;;;;;13.81;100.00;98713.70;107400;1270;25248;-67
2023/03/25 01:59:27;;;;;;;27.20;19.10;;;;;;;13.80;100.00;98714.50;107155;1274;22769;-67
2023/03/25 02:02:01;;;;;;;26.00;18.70;;;;;;;13.78;100.00;98718.05;107410;1274;22555;-67
2023/03/25 02:04:37;;;;;;;27.10;19.60;;;;;;;13.75;100.00;98709.13;107485;1274;25277;-68
2023/03/25 02:07:07;;;;;;;26.50;19.60;;;;;;;13.71;100.00;98708.34;107261;1274;24256;-67
2023/03/25 02:09:37;;;;;;;25.50;19.20;;;;;;;13.68;100.00;98699.73;107325;1274;26564;-67
2023/03/25 02:12:07;;;;;;;24.20;18.00;;;;;;;13.67;100.00;98694.21;110533;1274;22960;-68
2023/03/25 02:14:37;;;;;;;23.20;17.10;;;;;;;13.64;100.00;98690.81;110446;1270;22414;-67
2023/03/25 02:17:27;;;;;;;19.90;15.50;;;;;;;13.64;100.00;98688.59;110460;1274;23031;-68
2023/03/25 02:20:24;;;;;;;23.50;16.40;;;;;;;13.62;100.00;98695.26;110545;1274;22256;-68
2023/03/25 02:23:06;;;;;;;23.50;17.00;;;;;;;13.63;100.00;98691.59;110340;1274;22236;-68
2023/03/25 02:26:00;;;;;;;23.20;17.60;;;;;;;13.62;100.00;98684.11;110531;1274;22958;-68
2023/03/25 02:28:35;;;;;;;23.50;17.50;;;;;;;13.61;100.00;98680.63;110555;1274;22178;-68
2023/03/25 02:31:13;;;;;;;27.10;18.70;;;;;;;13.58;100.00;98687.16;110508;1274;22405;-68
2023/03/25 02:34:14;;;;;;;24.90;17.70;;;;;;;13.57;100.00;98691.09;108222;1274;22921;-66
2023/03/25 02:36:47;;;;;;;26.30;17.50;;;;;;;13.53;100.00;98689.71;106997;1275;22519;-67
2023/03/25 02:39:24;;;;;;;22.80;17.00;;;;;;;13.49;100.00;98687.39;107307;1276;22985;-67
2023/03/25 02:42:05;;;;;;;24.80;16.90;;;;;;;13.43;100.00;98680.10;107253;1275;23436;-67
2023/03/25 02:44:54;;;;;;;25.40;16.80;;;;;;;13.37;100.00;98678.02;107215;1276;25354;-67
2023/03/25 02:47:24;;;;;;;19.10;14.80;;;;;;;13.33;100.00;98680.37;107178;1276;26500;-67
2023/03/25 02:49:58;;;;;;;20.80;15.50;;;;;;;13.31;100.00;98679.95;107221;1275;26509;-67
2023/03/25 02:52:28;;;;;;;19.80;15.20;;;;;;;13.30;100.00;98683.80;107327;1275;24959;-67
2023/03/25 02:55:00;;;;;;;19.50;13.50;;;;;;;13.28;100.00;98683.56;107564;1270;27550;-68
2023/03/25 02:57:31;;;;;;;18.80;14.50;;;;;;;13.27;100.00;98686.23;107354;1274;24249;-68
2023/03/25 03:00:07;;;;;;;17.70;12.90;;;;;;;13.23;100.00;98681.68;107154;1274;23114;-67
2023/03/25 03:02:49;;;;;;;18.00;12.30;;;;;;;13.20;100.00;98679.20;107304;1274;25312;-68
2023/03/25 03:05:23;;;;;;;14.90;12.10;;;;;;;13.21;100.00;98679.39;107389;1274;22726;-67
2023/03/25 03:08:22;;;;;;;17.40;12.90;;;;;;;13.16;100.00;98672.55;107442;1274;22541;-67
2023/03/25 03:11:15;;;;;;;19.30;13.70;;;;;;;13.06;100.00;98672.39;106905;1274;22520;-67
2023/03/25 03:14:23;;;;;;;16.10;12.70;;;;;;;12.93;100.00;98665.84;107515;1269;22550;-67
2023/03/25 03:17:26;;;;;;;18.50;13.10;;;;;;;12.82;100.00;98666.09;107138;1275;23459;-67
2023/03/25 03:20:18;;;;;;;17.40;12.70;;;;;;;12.67;100.00;98658.92;107369;1275;25328;-67
2023/03/25 03:22:51;;;;;;;18.60;13.40;;;;;;;12.62;100.00;98657.47;107414;1274;22903;-67
2023/03/25 03:25:25;;;;;;;18.80;12.60;;;;;;;12.59;100.00;98659.16;107316;1274;23177;-67
2023/03/25 03:27:55;;;;;;;20.60;13.80;;;;;;;12.54;100.00;98655.30;107199;1274;24333;-67
2023/03/25 03:30:26;;;;;;;21.00;13.90;;;;;;;12.49;100.00;98654.33;107248;1274;26188;-67
2023/03/25 03:33:20;;;;;;;20.50;15.20;;;;;;;12.45;100.00;98654.16;107495;1274;22539;-67
2023/03/25 03:35:56;;;;;;;22.70;16.90;;;;;;;12.42;100.00;98665.05;107248;1274;25475;-67
2023/03/25 03:38:26;;;;;;;25.50;16.50;;;;;;;12.39;100.00;98667.52;110516;1274;22335;-67
2023/03/25 03:40:56;;;;;;;20.80;15.60;;;;;;;12.39;100.00;98664.00;110380;1274;22204;-68
2023/03/25 03:43:27;;;;;;;23.00;15.20;;;;;;;12.41;100.00;98666.86;110489;1274;22982;-67
2023/03/25 03:45:58;;;;;;;22.00;14.70;;;;;;;12.49;100.00;98669.30;110575;1274;22387;-68
2023/03/25 03:49:03;;;;;;;20.70;15.70;;;;;;;12.56;100.00;98670.27;110407;1274;22675;-68
2023/03/25 03:51:36;;;;;;;20.80;15.80;;;;;;;12.57;100.00;98671.83;110167;1276;22309;-68
2023/03/25 03:54:10;;;;;;;25.20;16.50;;;;;;;12.55;100.00;98677.71;110407;1274;22287;-68
2023/03/25 03:56:52;;;;;;;24.50;15.30;;;;;;;12.55;100.00;98675.98;110413;1274;22274;-68
2023/03/25 03:59:33;;;;;;;21.30;14.80;;;;;;;12.55;100.00;98674.73;110377;1274;22332;-68
2023/03/25 04:02:22;;;;;;;21.50;15.00;;;;;;;12.53;100.00;98671.28;109080;1274;22539;-67
2023/03/25 04:04:52;;;;;;;21.00;14.80;;;;;;;12.52;100.00;98676.06;107518;1274;25380;-68
2023/03/25 04:07:23;;;;;;;19.20;14.40;;;;;;;12.49;100.00;98675.79;107398;1274;23338;-68
2023/03/25 04:10:17;;;;;;;20.00;14.20;;;;;;;12.46;100.00;98675.58;107261;1274;22585;-68
2023/03/25 04:12:48;;;;;;;20.40;13.80;;;;;;;12.44;100.00;98678.80;106971;1270;25362;-67
2023/03/25 04:15:21;;;;;;;23.10;14.40;;;;;;;12.46;100.00;98677.05;107160;1274;25341;-68
2023/03/25 04:17:51;;;;;;;19.20;14.30;;;;;;;12.48;100.00;98677.06;107142;1274;25443;-68
2023/03/25 04:20:22;;;;;;;23.10;15.60;;;;;;;12.45;100.00;98673.77;107145;1270;22642;-68
2023/03/25 04:22:51;;;;;;;20.70;14.60;;;;;;;12.42;100.00;98680.66;107415;1269;25387;-67
2023/03/25 04:25:24;;;;;;;22.50;15.00;;;;;;;12.40;100.00;98673.43;107167;1275;24254;-67
2023/03/25 04:27:52;;;;;;;20.90;15.20;;;;;;;12.36;100.00;98659.33;107171;1275;25415;-67
2023/03/25 04:30:22;;;;;;;21.30;15.60;;;;;;;12.32;100.00;98654.59;107264;1274;25363;-68
2023/03/25 04:32:50;;;;;;;20.30;16.10;;;;;;;12.27;100.00;98647.82;107356;1274;23264;-68
2023/03/25 04:35:19;;;;;;;23.40;16.50;;;;;;;12.26;100.00;98651.87;107245;1274;22833;-68
2023/03/25 04:37:52;;;;;;;25.90;17.60;;;;;;;12.26;100.00;98658.33;107282;1274;25564;-68
2023/03/25 04:40:20;;;;;;;26.30;19.50;;;;;;;12.21;100.00;98654.63;107404;1274;24070;-67
2023/03/25 04:42:49;;;;;;;25.60;19.70;;;;;;;12.15;100.00;98649.56;107254;1268;25356;-67
2023/03/25 04:45:18;;;;;;;25.70;19.70;;;;;;;12.11;100.00;98646.17;107324;1274;25293;-68
2023/03/25 04:47:48;;;;;;;31.20;20.30;;;;;;;12.09;100.00;98635.97;107330;1274;25363;-68
2023/03/25 04:50:21;;;;;;;26.40;17.30;;;;;;;12.08;100.00;98640.42;107506;1274;25372;-68
2023/03/25 04:52:49;;;;;;;22.50;15.20;;;;;;;12.05;100.00;98637.58;107596;1274;22531;-68
2023/03/25 04:55:19;;;;;;;20.60;15.00;;;;;;;12.07;100.00;98635.80;107861;1269;25331;-69
2023/03/25 04:57:51;;;;;;;22.50;15.10;;;;;;;12.03;100.00;98633.00;107337;1274;23019;-68
2023/03/25 05:00:23;;;;;;;21.20;14.30;;;;;;;11.98;100.00;98635.67;107398;1274;25516;-68
2023/03/25 05:02:53;;;;;;;21.20;14.40;;;;;;;11.92;100.00;98630.73;107452;1269;25356;-68
2023/03/25 05:05:23;;;;;;;19.00;14.20;;;;;;;11.90;100.00;98628.63;107524;1274;22699;-68
2023/03/25 05:07:54;;;;;;;18.40;14.00;;;;;;;11.89;100.00;98623.50;107443;1274;25354;-68
2023/03/25 05:10:25;;;;;;;23.30;14.90;;;;;;;11.94;100.00;98620.48;107393;1274;24975;-68
2023/03/25 05:13:06;;;;;;;19.50;14.60;;;;;;;11.94;100.00;98621.67;107277;1274;22829;-68
2023/03/25 05:15:38;;;;;;;20.10;14.90;;;;;;;11.93;100.00;98624.35;107320;1272;22539;-69
2023/03/25 05:18:08;;;;;;;21.40;14.60;;;;;;;11.91;100.00;98626.73;107409;1274;25271;-68
2023/03/25 05:20:42;;;;;;;18.50;14.30;;;;;;;11.92;100.00;98628.01;107373;1274;22632;-69
2023/03/25 05:23:14;;;;;;;18.30;14.40;;;;;;;11.97;100.00;98632.91;107377;1274;23073;-69
2023/03/25 05:25:46;;;;;;;18.90;13.70;;;;;;;12.07;100.00;98634.70;107398;1274;22523;-68
2023/03/25 05:28:16;;;;;;;18.10;13.90;;;;;;;12.15;100.00;98633.05;110555;1274;22370;-69
2023/03/25 05:30:45;;;;;;;20.60;14.60;;;;;;;12.20;100.00;98627.85;110525;1274;22326;-69
2023/03/25 05:33:15;;;;;;;19.90;14.80;;;;;;;12.24;100.00;98624.16;110509;1274;22331;-66
2023/03/25 05:35:43;;;;;;;21.30;14.50;;;;;;;12.27;100.00;98615.83;110523;1274;22978;-67
2023/03/25 05:38:12;;;;;;;20.30;14.40;;;;;;;12.31;100.00;98612.44;110536;1274;22202;-67
2023/03/25 05:40:40;;;;;;;21.80;14.80;;;;;;;12.35;100.00;98609.64;110540;1260;22294;-66
2023/03/25 05:43:10;;;;;;;17.60;13.90;;;;;;;12.41;100.00;98607.13;110545;1274;22302;-67
2023/03/25 05:45:38;;;;;;;18.10;13.40;;;;;;;12.50;100.00;98607.65;110570;1274;22264;-67
2023/03/25 05:48:07;;;;;;;19.10;13.90;;;;;;;12.62;100.00;98606.66;110495;1274;23151;-66
2023/03/25 05:50:36;;;;;;;19.20;13.50;;;;;;;12.70;100.00;98599.92;107436;1270;24224;-68
2023/03/25 05:53:04;;;;;;;19.40;14.20;;;;;;;12.71;100.00;98599.94;107545;1274;25359;-69
2023/03/25 05:55:33;;;;;;;20.10;15.80;;;;;;;12.72;100.00;98594.13;107423;1274;26512;-69
2023/03/25 05:58:05;;;;;;;19.20;15.60;;;;;;;12.70;100.00;98592.32;107413;1274;22527;-68
2023/03/25 06:00:36;;;;;;;21.80;15.60;;;;;;;12.69;100.00;98586.62;107430;1274;25368;-68
2023/03/25 06:03:06;;;;;;;21.30;16.20;;;;;;;12.67;100.00;98585.05;107404;1274;25480;-69
2023/03/25 06:05:38;;;;;;;17.50;14.70;;;;;;;12.68;100.00;98583.38;107422;1274;22527;-69
2023/03/25 06:08:07;;;;;;;20.10;14.90;;;;;;;12.75;100.00;98586.95;107740;1274;22598;-69
2023/03/25 06:10:40;;;;;;;20.00;14.90;;;;;;;12.83;100.00;98587.02;107425;1270;25335;-69
2023/03/25 06:13:10;;;;;;;22.20;15.40;;;;;;;12.84;100.00;98583.85;107407;1273;25418;-68
2023/03/25 06:15:40;;;;;;;19.10;15.20;;;;;;;12.86;100.00;98578.13;107470;1274;25284;-68
2023/03/25 06:18:11;;;;;;;20.80;15.70;;;;;;;12.88;100.00;98579.94;107168;1273;25393;-68
2023/03/25 06:20:40;;;;;;;22.00;15.90;;;;;;;12.88;100.00;98578.46;107274;1270;24369;-67
2023/03/25 06:23:10;;;;;;;21.40;16.30;;;;;;;12.87;100.00;98582.10;107436;1270;25340;-69
2023/03/25 06:25:39;;;;;;;23.00;16.90;;;;;;;12.87;100.00;98579.79;107354;1275;22540;-68
2023/03/25 06:28:07;;;;;;;21.60;16.40;;;;;;;12.87;100.00;98575.48;107280;1276;23893;-68
2023/03/25 06:30:37;;;;;;;20.50;15.70;;;;;;;12.85;100.00;98578.56;107349;1273;25490;-67
2023/03/25 06:33:25;;;;;;;22.60;15.80;;;;;;;12.86;100.00;98584.74;107188;1275;22564;-68
2023/03/25 06:36:14;;;;;;;18.00;14.90;;;;;;;12.87;100.00;98587.10;107244;1270;25321;-68
2023/03/25 06:38:47;;;;;;;22.00;14.90;;;;;;;12.94;100.00;98585.11;107363;1276;22736;-68
2023/03/25 06:41:19;;;;;;;19.80;15.80;;;;;;;12.98;100.00;98587.02;107680;1274;25359;-68
2023/03/25 06:43:54;;;;;;;19.50;15.50;;;;;;;13.02;100.00;98584.06;107197;1274;24221;-68
2023/03/25 06:46:45;;;;;;;22.90;16.00;;;;;;;13.07;100.00;98586.42;107319;1274;22704;-69
2023/03/25 06:49:34;;;;;;;21.20;16.00;;;;;;;13.10;100.00;98589.24;107142;1274;25342;-68
2023/03/25 06:52:02;;;;;;;19.80;15.90;;;;;;;13.12;100.00;98588.23;107225;1274;25369;-68
2023/03/25 06:54:31;;;;;;;23.70;16.80;;;;;;;13.15;100.00;98583.98;110520;1274;23132;-67
2023/03/25 06:57:00;;;;;;;20.90;16.20;;;;;;;13.18;100.00;98578.81;110562;1274;22282;-67
2023/03/25 06:59:31;;;;;;;20.60;16.10;;;;;;;13.22;100.00;98575.09;110516;1274;22213;-67
2023/03/25 07:02:00;;;;;;;20.70;15.70;;;;;;;13.27;100.00;98574.27;110533;1275;22405;-67
2023/03/25 07:04:28;;;;;;;21.10;15.70;;;;;;;13.35;100.00;98574.27;107515;1275;22507;-68
2023/03/25 07:06:56;;;;;;;19.10;15.90;;;;;;;13.40;100.00;98573.13;107356;1273;26168;-68
2023/03/25 07:09:26;;;;;;;19.70;15.10;;;;;;;13.44;100.00;98568.27;107283;1274;25891;-68
2023/03/25 07:11:54;;;;;;;19.30;15.40;;;;;;;13.43;100.00;98574.24;107214;1270;25426;-68
2023/03/25 07:14:28;;;;;;;21.10;15.60;;;;;;;13.41;100.00;98570.95;107190;1274;22517;-69
2023/03/25 07:16:56;;;;;;;22.00;15.90;;;;;;;13.38;100.00;98571.07;107281;1274;23415;-69
2023/03/25 07:19:31;;;;;;;18.40;15.50;;;;;;;13.39;100.00;98570.80;107066;1273;25354;-67
2023/03/25 07:22:01;;;;;;;22.00;16.40;;;;;;;13.40;100.00;98569.58;106617;1274;25420;-68
2023/03/25 07:24:30;;;;;;;18.30;14.80;;;;;;;13.42;100.00;98572.03;107022;1274;22644;-69
2023/03/25 07:26:59;;;;;;;22.30;14.30;;;;;;;13.48;100.00;98567.21;106925;1274;24210;-68
2023/03/25 07:29:28;;;;;;;20.10;15.20;;;;;;;13.56;100.00;98564.85;106985;1270;25372;-68
2023/03/25 07:31:56;;;;;;;22.90;16.00;;;;;;;13.60;100.00;98562.77;107510;1274;25536;-69
2023/03/25 07:34:24;;;;;;;19.40;15.40;;;;;;;13.63;100.00;98564.15;107364;1274;25708;-68
2023/03/25 07:36:53;;;;;;;22.50;16.30;;;;;;;13.64;100.00;98556.63;107447;1274;24219;-69
2023/03/25 07:39:24;;;;;;;22.50;16.60;;;;;;;13.64;100.00;98556.16;107360;1274;25424;-69
2023/03/25 07:41:54;;;;;;;23.10;17.40;;;;;;;13.64;100.00;98553.35;107389;1274;23354;-69
2023/03/25 07:44:39;;;;;;;22.30;17.00;;;;;;;13.67;100.00;98550.30;107503;1274;25381;-69
2023/03/25 07:47:12;;;;;;;23.40;17.00;;;;;;;13.70;100.00;98546.52;107451;1274;23351;-69
2023/03/25 07:49:41;;;;;;;22.20;17.90;;;;;;;13.73;100.00;98539.58;107539;1274;26490;-69
2023/03/25 07:52:09;;;;;;;23.50;17.70;;;;;;;13.74;100.00;98534.76;107413;1274;22519;-68
2023/03/25 07:54:38;;;;;;;20.80;16.60;;;;;;;13.75;100.00;98529.04;107456;1274;25365;-68
2023/03/25 07:57:06;;;;;;;23.50;18.20;;;;;;;13.79;100.00;98530.55;107419;1274;26197;-69
2023/03/25 07:59:38;;;;;;;26.00;19.60;;;;;;;13.83;100.00;98534.73;107332;1274;25568;-69
2023/03/25 08:02:11;;;;;;;30.50;22.70;;;;;;;13.87;100.00;98536.20;107258;1274;22521;-68
2023/03/25 08:04:39;;;;;;;25.00;18.50;;;;;;;13.93;100.00;98531.64;107139;1274;22534;-69
2023/03/25 08:07:08;;;;;;;23.90;17.90;;;;;;;13.98;100.00;98524.68;107371;1274;25439;-68
2023/03/25 08:09:37;;;;;;;25.40;18.70;;;;;;;14.01;100.00;98527.48;107223;1274;25359;-68
2023/03/25 08:12:07;;;;;;;19.80;16.50;;;;;;;14.04;100.00;98526.13;107252;1274;22516;-69
2023/03/25 08:14:35;;;;;;;22.40;15.90;;;;;;;14.12;100.00;98515.83;107387;1273;24265;-68
2023/03/25 08:17:05;;;;;;;21.50;17.00;;;;;;;14.14;100.00;98513.04;107255;1276;24268;-69
2023/03/25 08:19:35;;;;;;;19.90;16.00;;;;;;;14.14;100.00;98507.70;107268;1276;25348;-69
2023/03/25 08:22:04;;;;;;;22.40;16.70;;;;;;;14.12;100.00;98509.13;107369;1276;25346;-69
2023/03/25 08:24:32;;;;;;;29.70;17.70;;;;;;;14.12;100.00;98501.06;107472;1275;23329;-69
2023/03/25 08:27:01;;;;;;;25.90;16.00;;;;;;;14.18;100.00;98496.08;107368;1274;26525;-69
2023/03/25 08:29:53;;;;;;;21.10;15.80;;;;;;;14.22;100.00;98499.92;107333;1274;22526;-68
2023/03/25 08:32:22;;;;;;;21.60;15.60;;;;;;;14.24;100.00;98501.21;107403;1274;24198;-67
2023/03/25 08:34:51;;;;;;;22.80;15.00;;;;;;;14.26;100.00;98502.08;107181;1275;24219;-68
2023/03/25 08:37:20;;;;;;;23.30;15.90;;;;;;;14.28;100.00;98497.94;107378;1274;24476;-73
2023/03/25 08:39:54;;;;;;;18.70;15.10;;;;;;;14.30;100.00;98494.84;107481;1274;25372;-69
2023/03/25 08:42:24;;;;;;;19.40;14.90;;;;;;;14.28;100.00;98488.39;107421;1275;25556;-68
2023/03/25 08:44:52;;;;;;;19.80;14.70;;;;;;;14.26;100.00;98489.48;107318;1252;24217;-68
2023/03/25 08:47:20;;;;;;;19.00;15.20;;;;;;;14.26;100.00;98495.41;107384;1274;22674;-69
2023/03/25 08:49:53;;;;;;;19.70;15.00;;;;;;;14.25;100.00;98505.10;107393;1274;24002;-69
2023/03/25 08:52:24;;;;;;;21.00;15.00;;;;;;;14.24;100.00;98506.45;107147;1275;25424;-69
2023/03/25 08:54:52;;;;;;;23.30;16.10;;;;;;;14.25;100.00;98502.21;110407;1276;22873;-69
2023/03/25 08:57:21;;;;;;;19.40;15.80;;;;;;;14.30;100.00;98501.00;110529;1276;23741;-69
2023/03/25 08:59:50;;;;;;;21.70;18.10;;;;;;;14.37;100.00;98498.99;110488;1276;22303;-70
2023/03/25 09:02:20;;;;;;;24.10;18.00;;;;;;;14.44;100.00;98497.71;110423;1270;22431;-69
2023/03/25 09:04:51;;;;;;;21.70;17.20;;;;;;;14.54;100.00;98494.27;110387;1274;22627;-69
2023/03/25 09:07:22;;;;;;;25.20;20.80;;;;;;;14.64;100.00;98493.85;107476;1274;23279;-69
2023/03/25 09:09:50;;;;;;;25.70;20.20;;;;;;;14.75;100.00;98495.89;107335;1274;24391;-69
2023/03/25 09:12:18;;;;;;;22.60;17.20;;;;;;;14.84;100.00;98481.77;107224;1275;22598;-69
2023/03/25 09:14:48;;;;;;;24.20;16.00;;;;;;;14.88;100.00;98467.70;107411;1276;22592;-69
2023/03/25 09:17:16;;;;;;;21.10;15.70;;;;;;;14.90;100.00;98464.56;107221;1276;22510;-68
2023/03/25 09:19:46;;;;;;;25.00;19.50;;;;;;;14.88;100.00;98458.60;107670;1276;25468;-69
2023/03/25 09:22:15;;;;;;;23.90;19.70;;;;;;;14.90;100.00;98460.89;107407;1269;23724;-69
2023/03/25 09:24:49;;;;;;;22.10;16.50;;;;;;;14.91;100.00;98461.55;107346;1274;25343;-68
2023/03/25 09:27:19;;;;;;;20.80;16.00;;;;;;;14.87;100.00;98460.29;107382;1274;24402;-69
2023/03/25 09:29:47;;;;;;;21.10;16.50;;;;;;;14.82;100.00;98472.46;107410;1274;25391;-69
2023/03/25 09:32:17;;;;;;;25.30;16.70;;;;;;;14.79;100.00;98474.90;107389;1274;23317;-69
2023/03/25 09:34:47;;;;;;;23.10;17.30;;;;;;;14.76;100.00;98480.90;107234;1274;25328;-69
2023/03/25 09:37:15;;;;;;;25.20;16.90;;;;;;;14.73;100.00;98481.64;107122;1275;22571;-68
2023/03/25 09:39:45;;;;;;;21.30;16.60;;;;;;;14.70;100.00;98474.87;107588;1274;26525;-68
2023/03/25 09:42:40;;;;;;;23.10;16.60;;;;;;;14.66;100.00;98469.05;107457;1272;26627;-69
2023/03/25 09:45:36;;;;;;;24.10;15.80;;;;;;;14.62;100.00;98468.66;107098;1274;26221;-69
2023/03/25 09:48:05;;;;;;;20.50;16.50;;;;;;;14.61;100.00;98467.11;107390;1274;24392;-68
2023/03/25 09:50:35;;;;;;;22.40;15.90;;;;;;;14.61;100.00;98460.54;107137;1276;22516;-69
2023/03/25 09:53:09;;;;;;;24.60;16.30;;;;;;;14.60;100.00;98457.55;107021;1276;26670;-69
2023/03/25 09:55:39;;;;;;;39.80;20.10;;;;;;;14.63;100.00;98454.52;107012;1275;26844;-69
2023/03/25 09:58:27;;;;;;;26.70;17.80;;;;;;;14.63;100.00;98454.46;107018;1275;23191;-69
2023/03/25 10:01:00;;;;;;;22.90;16.70;;;;;;;14.63;100.00;98451.80;107694;1274;22525;-68
2023/03/25 10:03:54;;;;;;;21.60;15.70;;;;;;;14.64;100.00;98450.05;107170;1274;26669;-68
2023/03/25 10:06:25;;;;;;;32.50;17.30;;;;;;;14.69;100.00;98455.00;106924;1274;22613;-68
2023/03/25 10:09:23;;;;;;;22.90;15.70;;;;;;;14.73;100.00;98448.60;107161;1274;25497;-69
2023/03/25 10:12:18;;;;;;;19.50;15.70;;;;;;;14.86;100.00;98440.54;107358;1275;25334;-69
2023/03/25 10:14:56;;;;;;;20.90;16.20;;;;;;;15.02;100.00;98438.41;107328;1275;25347;-69
2023/03/25 10:17:30;;;;;;;20.60;16.00;;;;;;;15.10;100.00;98440.52;107300;1275;24200;-69
2023/03/25 10:20:17;;;;;;;22.90;17.20;;;;;;;15.15;100.00;98431.55;110174;1275;23106;-69
2023/03/25 10:23:38;;;;;;;19.20;16.00;;;;;;;15.23;100.00;98436.40;110232;1276;22336;-69
2023/03/25 10:26:26;;;;;;;21.30;16.70;;;;;;;15.30;100.00;98434.73;107883;1276;24323;-69
2023/03/25 10:29:06;;;;;;;20.30;16.40;;;;;;;15.35;100.00;98433.14;107333;1275;22472;-69
2023/03/25 10:31:36;;;;;;;21.40;16.00;;;;;;;15.41;100.00;98433.42;107135;1275;25337;-70
2023/03/25 10:34:06;;;;;;;20.10;16.30;;;;;;;15.47;100.00;98430.12;107043;1274;22578;-69
2023/03/25 10:36:38;;;;;;;18.70;16.70;;;;;;;15.50;100.00;98432.06;107174;1275;22636;-69
2023/03/25 10:39:17;;;;;;;20.70;16.10;;;;;;;15.53;100.00;98428.17;107301;1270;25536;-69
2023/03/25 10:42:00;;;;;;;23.00;17.00;;;;;;;15.57;100.00;98424.19;107347;1275;25344;-69
2023/03/25 10:44:29;;;;;;;22.70;17.20;;;;;;;15.60;100.00;98414.59;107569;1275;26113;-69
2023/03/25 10:46:59;;;;;;;21.50;17.10;;;;;;;15.62;100.00;98416.50;107375;1276;22666;-70
2023/03/25 10:49:30;;;;;;;23.50;17.00;;;;;;;15.61;100.00;98415.06;107395;1275;25440;-69
2023/03/25 10:51:59;;;;;;;21.90;17.20;;;;;;;15.58;100.00;98414.36;107329;1276;26700;-70
2023/03/25 10:54:37;;;;;;;23.10;19.30;;;;;;;15.59;100.00;98411.47;107287;1276;25417;-69
2023/03/25 10:57:07;;;;;;;26.10;19.90;;;;;;;15.62;100.00;98404.92;107241;1276;25341;-70
2023/03/25 10:59:56;;;;;;;25.10;19.00;;;;;;;15.70;100.00;98404.89;107383;1276;25246;-70
2023/03/25 11:02:27;;;;;;;19.20;15.50;;;;;;;15.80;100.00;98400.63;107322;1275;22578;-69
2023/03/25 11:05:03;;;;;;;21.10;16.20;;;;;;;15.85;100.00;98398.00;107330;1276;25927;-69
2023/03/25 11:07:38;;;;;;;24.30;18.30;;;;;;;15.93;100.00;98395.55;107329;1276;25375;-69
2023/03/25 11:10:12;;;;;;;26.60;20.60;;;;;;;16.02;100.00;98398.35;107161;1276;24212;-70
2023/03/25 11:12:46;;;;;;;37.50;26.80;;;;;;;16.09;100.00;98390.36;107363;1276;25363;-69
2023/03/25 11:15:20;;;;;;;23.90;17.60;;;;;;;16.17;100.00;98387.02;107375;1276;24244;-70
2023/03/25 11:17:55;;;;;;;21.40;16.40;;;;;;;16.23;100.00;98379.39;107221;1273;27485;-69
2023/03/25 11:20:27;;;;;;;20.60;16.20;;;;;;;16.28;100.00;98377.91;107168;1270;25341;-69
2023/03/25 11:23:07;;;;;;;22.30;16.00;;;;;;;16.32;100.00;98375.55;107360;1276;24292;-70
2023/03/25 11:25:40;;;;;;;28.00;20.40;;;;;;;16.38;100.00;98378.48;107353;1276;22504;-69
2023/03/25 11:28:18;;;;;;;24.10;19.60;;;;;;;16.42;100.00;98379.95;107275;1276;25328;-68
2023/03/25 11:31:08;;;;;;;26.10;21.40;;;;;;;16.45;100.00;98380.92;107413;1276;22634;-69